Time;durP1;ratioP1;P1;durP2;ratioP2;P2;SDS_P1;SDS_P2;PMS_P1;PMS_P2;Temp;Humidity;BMP_temperature;BMP_pressure;BME280_temperature;BME280_humidity;BME280_pressure;Samples;Min_cycle;Max_cycle;Signal;HPM_P1;HPM_P2
2021/12/11 00:02:01;;;;;;;25.85;15.57;;;;;;;-0.63;81.06;97959.34;5109509;28;20048;-66
2021/12/11 00:04:36;;;;;;;25.35;15.27;;;;;;;-0.65;81.10;97966.34;5109472;28;20156;-67
2021/12/11 00:07:11;;;;;;;24.33;17.30;;;;;;;-0.65;81.10;97968.94;5109586;28;20047;-66
2021/12/11 00:09:48;;;;;;;23.35;15.45;;;;;;;-0.60;80.93;97969.66;5108983;28;20048;-66
2021/12/11 00:12:26;;;;;;;26.33;17.52;;;;;;;-0.55;80.78;97982.50;5109612;28;20040;-67
2021/12/11 00:15:07;;;;;;;23.05;15.50;;;;;;;-0.52;80.71;97983.25;5109854;28;20092;-66
2021/12/11 00:17:39;;;;;;;27.27;17.05;;;;;;;-0.76;80.55;97953.69;5109302;28;20040;-66
2021/12/11 00:20:19;;;;;;;23.17;14.82;;;;;;;-0.53;80.25;97989.38;5109437;28;20089;-66
2021/12/11 00:22:51;;;;;;;18.73;14.15;;;;;;;-0.80;80.26;97948.63;5109437;28;20044;-66
2021/12/11 00:25:24;;;;;;;22.10;13.57;;;;;;;-0.51;80.01;97999.72;5109263;28;20089;-66
2021/12/11 00:28:05;;;;;;;22.38;14.77;;;;;;;-0.53;80.08;97999.78;5108987;28;20285;-65
2021/12/11 00:30:40;;;;;;;20.75;15.13;;;;;;;-0.56;80.22;98004.22;5108595;28;20070;-66
2021/12/11 00:33:15;;;;;;;20.98;12.80;;;;;;;-0.48;80.02;98002.22;5108858;28;20055;-66
2021/12/11 00:35:48;;;;;;;22.60;14.43;;;;;;;-0.45;79.79;97997.78;5108882;28;20048;-67
2021/12/11 00:38:23;;;;;;;23.63;16.52;;;;;;;-0.44;79.90;98009.88;5108149;28;20051;-66
2021/12/11 00:40:56;;;;;;;20.15;13.70;;;;;;;-0.42;79.68;98013.28;5108686;28;20089;-66
2021/12/11 00:43:34;;;;;;;23.23;14.70;;;;;;;-0.42;79.48;98031.53;5108797;28;20048;-67
2021/12/11 00:46:11;;;;;;;22.80;14.77;;;;;;;-0.43;79.59;98029.81;5108737;28;20090;-67
2021/12/11 00:48:44;;;;;;;25.30;14.95;;;;;;;-0.51;79.68;98038.75;5108689;28;20181;-67
2021/12/11 00:51:18;;;;;;;21.58;16.10;;;;;;;-0.51;79.66;98039.63;5108256;28;20093;-67
2021/12/11 00:53:53;;;;;;;25.33;14.85;;;;;;;-0.55;79.73;98035.41;5108297;28;20291;-67
2021/12/11 00:56:30;;;;;;;23.25;14.63;;;;;;;-0.53;79.97;98050.97;5108528;28;20086;-67
2021/12/11 00:59:08;;;;;;;22.83;14.40;;;;;;;-0.54;79.55;98091.75;5108406;28;20341;-67
2021/12/11 01:01:47;;;;;;;20.88;13.20;;;;;;;-0.52;79.88;98060.50;5108088;28;20040;-67
2021/12/11 01:04:24;;;;;;;21.38;14.13;;;;;;;-0.48;79.61;98069.91;5108358;28;20089;-67
2021/12/11 01:07:01;;;;;;;22.33;14.68;;;;;;;-0.48;79.57;98072.50;5108270;28;20052;-67
2021/12/11 01:09:37;;;;;;;23.23;16.08;;;;;;;-0.48;79.93;98081.16;5107384;28;20070;-67
2021/12/11 01:12:15;;;;;;;21.95;14.75;;;;;;;-0.46;79.89;98096.72;5107949;28;20258;-67
2021/12/11 01:14:54;;;;;;;26.02;16.52;;;;;;;-0.44;79.53;98101.00;5108159;28;20044;-67
2021/12/11 01:17:41;;;;;;;22.48;15.10;;;;;;;-0.65;79.39;98062.63;5108150;28;20093;-67
2021/12/11 01:20:17;;;;;;;24.00;15.68;;;;;;;-0.40;79.43;98112.16;5108090;28;20052;-67
2021/12/11 01:22:51;;;;;;;26.38;17.77;;;;;;;-0.44;79.59;98115.75;5107984;28;20056;-67
2021/12/11 01:25:27;;;;;;;22.77;14.75;;;;;;;-0.43;79.83;98122.66;5107663;28;20089;-67
2021/12/11 01:28:03;;;;;;;23.92;16.08;;;;;;;-0.44;79.69;98127.03;5107895;28;20113;-67
2021/12/11 01:30:41;;;;;;;26.05;15.80;;;;;;;-2.57;79.90;97782.47;5107784;28;20043;-67
2021/12/11 01:33:14;;;;;;;25.60;16.70;;;;;;;-1.19;80.31;98032.13;5107548;28;20093;-67
2021/12/11 01:35:47;;;;;;;31.92;19.38;;;;;;;-1.33;80.44;98009.13;5107753;28;20094;-67
2021/12/11 01:38:21;;;;;;;26.63;17.35;;;;;;;-0.58;80.57;98134.41;5107650;28;20044;-67
2021/12/11 01:40:59;;;;;;;25.17;16.02;;;;;;;-0.56;80.33;98135.19;5107675;28;20044;-67
2021/12/11 01:43:34;;;;;;;26.83;16.58;;;;;;;-0.57;80.39;98138.69;5107666;28;20086;-67
2021/12/11 01:46:08;;;;;;;25.23;16.63;;;;;;;-0.54;80.21;98143.81;5107568;28;20088;-67
2021/12/11 01:48:45;;;;;;;26.38;17.67;;;;;;;-2.44;80.34;97842.63;5107522;28;20048;-67
2021/12/11 01:51:22;;;;;;;26.92;15.50;;;;;;;-0.57;80.55;98154.31;5107398;28;20048;-67
2021/12/11 01:53:59;;;;;;;23.80;16.00;;;;;;;-0.58;80.45;98154.38;5107154;28;20062;-67
2021/12/11 01:56:33;;;;;;;26.38;17.08;;;;;;;-0.52;80.47;98159.38;5107093;28;20350;-67
2021/12/11 01:59:09;;;;;;;26.07;19.17;;;;;;;-0.52;80.19;98147.22;5107389;28;20052;-67
2021/12/11 02:01:47;;;;;;;32.13;18.95;;;;;;;-0.56;80.62;98150.81;5107233;28;20292;-67
2021/12/11 02:04:23;;;;;;;30.15;20.05;;;;;;;-0.60;80.66;98150.94;5107702;28;20048;-67
2021/12/11 02:06:56;;;;;;;26.20;17.50;;;;;;;-0.53;80.77;98153.31;5107081;28;20047;-67
2021/12/11 02:09:28;;;;;;;28.30;18.15;;;;;;;-0.50;80.67;98155.00;5107100;28;20052;-67
2021/12/11 02:12:09;;;;;;;31.88;18.90;;;;;;;-1.62;80.65;97974.47;5106943;28;20113;-67
2021/12/11 02:14:48;;;;;;;27.02;17.58;;;;;;;-0.61;80.99;98155.31;5106522;28;20198;-67
2021/12/11 02:17:29;;;;;;;27.45;17.90;;;;;;;-0.57;80.96;98162.13;5106937;28;20063;-67
2021/12/11 02:20:05;;;;;;;29.58;17.65;;;;;;;-0.55;80.78;98162.94;5105794;28;20224;-67
2021/12/11 02:22:43;;;;;;;31.48;17.48;;;;;;;-0.51;80.58;98155.88;5106829;28;20296;-67
2021/12/11 02:25:19;;;;;;;30.25;18.67;;;;;;;-0.48;80.52;98156.66;5106714;28;20048;-67
2021/12/11 02:27:57;;;;;;;29.77;17.80;;;;;;;-0.47;80.65;98160.09;5106771;28;20040;-67
2021/12/11 02:30:35;;;;;;;28.00;16.48;;;;;;;-0.88;80.75;98106.69;5106546;28;20093;-67
2021/12/11 02:33:13;;;;;;;28.52;18.05;;;;;;;-0.51;80.57;98169.75;5106692;28;20047;-67
2021/12/11 02:35:50;;;;;;;29.67;17.15;;;;;;;-0.54;80.75;98169.00;5106617;28;20048;-67
2021/12/11 02:38:31;;;;;;;30.88;18.42;;;;;;;-0.56;81.03;98173.38;5106288;28;20040;-67
2021/12/11 02:41:09;;;;;;;32.08;17.92;;;;;;;-0.63;81.16;98167.50;5106480;28;20048;-67
2021/12/11 02:43:46;;;;;;;29.98;18.92;;;;;;;-0.61;81.03;98168.31;5106509;28;20056;-67
2021/12/11 02:46:23;;;;;;;28.80;17.05;;;;;;;-2.75;81.02;97817.53;5106167;28;20044;-67
2021/12/11 02:48:59;;;;;;;32.20;20.10;;;;;;;-0.63;81.01;98183.13;5106390;28;20047;-67
2021/12/11 02:51:38;;;;;;;32.75;18.33;;;;;;;-0.66;81.35;98174.56;5106198;28;20085;-67
2021/12/11 02:54:16;;;;;;;30.52;16.85;;;;;;;-0.61;80.93;98177.88;5106025;28;20089;-67
2021/12/11 02:56:53;;;;;;;31.25;17.27;;;;;;;-0.58;80.87;98173.44;5106241;28;20061;-67
2021/12/11 02:59:27;;;;;;;30.33;17.95;;;;;;;-0.54;80.60;98167.25;5106717;28;20050;-67
2021/12/11 03:02:09;;;;;;;30.33;20.27;;;;;;;-0.49;81.50;98162.75;5106164;28;20070;-67
2021/12/11 03:04:48;;;;;;;28.92;18.13;;;;;;;-0.47;81.19;98179.19;5106233;28;20044;-67
2021/12/11 03:07:24;;;;;;;26.52;16.63;;;;;;;-0.45;80.78;98185.19;5105847;28;20048;-67
2021/12/11 03:09:57;;;;;;;25.70;15.85;;;;;;;-0.60;80.63;98159.63;5106074;28;20036;-67
2021/12/11 03:12:30;;;;;;;32.22;17.77;;;;;;;-0.44;80.67;98196.44;5105445;28;20086;-67
2021/12/11 03:15:03;;;;;;;28.00;16.38;;;;;;;-0.47;80.77;98202.59;5106005;28;20093;-67
2021/12/11 03:17:36;;;;;;;27.88;17.17;;;;;;;-0.46;80.44;98203.44;5105973;28;20330;-67
2021/12/11 03:20:12;;;;;;;27.73;16.73;;;;;;;-0.43;80.37;98211.16;5105994;28;20040;-67
2021/12/11 03:22:46;;;;;;;27.70;17.88;;;;;;;-0.44;80.40;98207.72;5105902;28;20044;-67
2021/12/11 03:25:22;;;;;;;29.58;18.45;;;;;;;-0.51;80.46;98210.53;5105904;28;20113;-67
2021/12/11 03:27:56;;;;;;;27.80;15.82;;;;;;;-0.58;80.97;98219.41;5105816;28;20349;-67
2021/12/11 03:30:34;;;;;;;29.20;18.40;;;;;;;-0.52;80.70;98211.44;5105840;28;20040;-67
2021/12/11 03:33:12;;;;;;;28.60;18.00;;;;;;;-0.69;80.65;98189.34;5105345;28;20044;-67
2021/12/11 03:35:47;;;;;;;25.67;15.88;;;;;;;-0.49;80.59;98219.16;5105774;28;20056;-67
2021/12/11 03:38:19;;;;;;;27.75;18.08;;;;;;;-0.50;80.72;98222.66;5105527;28;20040;-67
2021/12/11 03:40:53;;;;;;;26.88;15.65;;;;;;;-0.49;80.51;98214.81;5105515;28;20185;-67
2021/12/11 03:43:28;;;;;;;28.27;19.95;;;;;;;-0.52;80.84;98209.69;5105683;28;20141;-68
2021/12/11 03:46:05;;;;;;;32.85;17.67;;;;;;;-0.48;80.65;98213.91;5105324;28;20243;-68
2021/12/11 03:48:40;;;;;;;27.50;16.35;;;;;;;-0.72;80.50;98176.44;5104583;28;20093;-67
2021/12/11 03:51:17;;;;;;;27.05;16.98;;;;;;;-0.51;80.68;98216.59;5105445;28;20288;-67
2021/12/11 03:53:50;;;;;;;24.00;16.33;;;;;;;-0.49;80.58;98225.22;5105322;28;20093;-67
2021/12/11 03:56:24;;;;;;;25.10;15.63;;;;;;;-0.49;80.59;98214.81;5105308;28;20238;-67
2021/12/11 03:58:56;;;;;;;26.27;16.20;;;;;;;-0.48;80.57;98231.28;5105577;28;20281;-67
2021/12/11 04:01:30;;;;;;;29.27;16.45;;;;;;;-0.50;80.73;98228.72;5105540;28;20044;-67
2021/12/11 04:04:06;;;;;;;27.13;16.60;;;;;;;-0.48;80.49;98226.94;5105299;28;20044;-67
2021/12/11 04:06:39;;;;;;;26.13;16.38;;;;;;;-0.46;80.40;98230.34;5105487;28;20323;-67
2021/12/11 04:09:15;;;;;;;29.63;17.48;;;;;;;-0.45;80.54;98236.41;5105730;28;20097;-67
2021/12/11 04:11:51;;;;;;;25.33;17.27;;;;;;;-0.42;80.33;98241.50;5105344;28;20044;-67
2021/12/11 04:14:27;;;;;;;30.65;18.15;;;;;;;-0.43;80.24;98245.88;5104874;28;20135;-67
2021/12/11 04:17:00;;;;;;;24.45;16.73;;;;;;;-0.40;80.37;98260.53;5105319;28;20048;-67
2021/12/11 04:19:28;;;;;;;28.75;16.48;;;;;;;-0.40;80.29;98257.94;5105254;28;20123;-67
2021/12/11 04:21:58;;;;;;;29.50;18.67;;;;;;;-2.25;80.14;97964.94;5105434;28;20093;-67
2021/12/11 04:24:31;;;;;;;28.30;17.13;;;;;;;-0.39;80.29;98259.66;5105912;28;20028;-67
2021/12/11 04:27:09;;;;;;;28.20;14.55;;;;;;;-0.42;80.21;98264.94;5105371;28;20042;-67
2021/12/11 04:29:43;;;;;;;31.35;16.65;;;;;;;-0.42;80.38;98273.59;5105333;28;20052;-67
2021/12/11 04:32:15;;;;;;;31.30;19.25;;;;;;;-0.68;80.43;98237.91;5104921;28;20048;-65
2021/12/11 04:34:48;;;;;;;29.10;16.90;;;;;;;-0.40;80.43;98282.22;5105247;28;20036;-66
2021/12/11 04:37:25;;;;;;;29.20;19.25;;;;;;;-0.38;80.42;98282.19;5105247;28;20040;-67
2021/12/11 04:40:02;;;;;;;30.77;19.90;;;;;;;-0.73;80.31;98228.50;5105204;28;20105;-67
2021/12/11 04:42:49;;;;;;;28.63;17.33;;;;;;;-0.40;80.38;98283.97;5105108;28;20101;-67
2021/12/11 04:45:26;;;;;;;28.88;17.63;;;;;;;-0.40;80.45;98287.44;5108366;28;20048;-67
2021/12/11 04:48:04;;;;;;;36.00;19.92;;;;;;;-0.41;80.61;98290.94;5108691;28;20200;-67
2021/12/11 04:50:45;;;;;;;28.20;16.90;;;;;;;-0.36;80.49;98294.25;5108719;28;20067;-67
2021/12/11 04:53:36;;;;;;;30.25;16.48;;;;;;;-0.98;80.42;98191.06;5108510;28;20280;-67
2021/12/11 04:56:33;;;;;;;29.08;17.85;;;;;;;-0.42;80.31;98293.56;5108289;28;20086;-67
2021/12/11 04:59:24;;;;;;;28.98;16.42;;;;;;;-0.40;80.40;98302.19;5108410;28;20282;-65
2021/12/11 05:02:10;;;;;;;27.88;19.65;;;;;;;-0.39;80.28;98307.34;5108426;28;20113;-65
2021/12/11 05:04:57;;;;;;;28.75;18.63;;;;;;;-0.42;80.34;98312.66;5108021;28;20053;-65
2021/12/11 05:07:35;;;;;;;28.00;17.80;;;;;;;-0.52;80.64;98316.41;5108008;28;20044;-66
2021/12/11 05:10:15;;;;;;;29.83;19.02;;;;;;;-0.46;80.50;98318.84;5108280;28;20040;-66
2021/12/11 05:12:52;;;;;;;29.10;18.50;;;;;;;-0.49;80.59;98324.13;5107774;28;20161;-65
2021/12/11 05:15:33;;;;;;;29.88;18.90;;;;;;;-0.48;80.74;98325.84;5107824;28;20058;-65
2021/12/11 05:18:11;;;;;;;31.27;19.02;;;;;;;-0.44;80.60;98334.41;5107821;28;20040;-67
2021/12/11 05:20:47;;;;;;;29.73;16.95;;;;;;;-0.39;80.36;98335.13;5107730;28;20129;-66
2021/12/11 05:23:20;;;;;;;32.10;18.77;;;;;;;-0.38;80.45;98329.03;5107934;28;20043;-66
2021/12/11 05:25:54;;;;;;;33.13;18.25;;;;;;;-0.37;80.38;98331.59;5107938;28;20048;-67
2021/12/11 05:28:26;;;;;;;29.08;16.75;;;;;;;-0.87;80.08;98254.06;5107111;28;20047;-67
2021/12/11 05:31:06;;;;;;;29.27;18.50;;;;;;;-0.32;80.11;98346.25;5107828;28;20105;-66
2021/12/11 05:33:39;;;;;;;33.78;18.63;;;;;;;-0.33;80.15;98350.59;5107476;28;20039;-67
2021/12/11 05:36:14;;;;;;;28.70;18.23;;;;;;;-0.32;80.09;98351.44;5107747;28;20048;-67
2021/12/11 05:38:48;;;;;;;33.28;19.77;;;;;;;-0.30;80.08;98352.25;5107725;28;20097;-67
2021/12/11 05:41:22;;;;;;;28.92;17.80;;;;;;;-0.34;80.05;98354.09;5107643;28;20052;-67
2021/12/11 05:43:55;;;;;;;29.00;16.80;;;;;;;-0.33;79.99;98360.16;5107343;28;20093;-67
2021/12/11 05:46:29;;;;;;;29.88;18.38;;;;;;;-0.33;80.00;98358.41;5107529;28;20434;-66
2021/12/11 05:49:01;;;;;;;32.20;20.42;;;;;;;-0.32;79.87;98364.47;5107508;28;20089;-67
2021/12/11 05:51:39;;;;;;;27.95;16.92;;;;;;;-0.33;79.77;98366.22;5107245;28;20238;-67
2021/12/11 05:54:15;;;;;;;29.15;18.13;;;;;;;-0.59;79.61;98322.66;5107062;28;20040;-67
2021/12/11 05:56:47;;;;;;;26.02;16.13;;;;;;;-0.29;79.75;98364.38;5107109;28;20085;-67
2021/12/11 05:59:19;;;;;;;31.25;18.20;;;;;;;-0.27;79.69;98370.41;5107335;28;20093;-67
2021/12/11 06:01:57;;;;;;;29.10;18.83;;;;;;;-0.26;79.56;98366.91;5106993;28;20062;-67
2021/12/11 06:04:31;;;;;;;28.45;18.65;;;;;;;-0.23;79.52;98366.81;5107178;28;20040;-67
2021/12/11 06:07:06;;;;;;;29.45;19.02;;;;;;;-0.51;79.51;98330.28;5107118;28;20085;-67
2021/12/11 06:09:39;;;;;;;;;;;;;;;-0.29;79.72;98380.00;5107321;28;20043;-66
2021/12/11 06:12:13;;;;;;;32.63;19.08;;;;;;;-0.30;79.85;98380.91;5106984;28;19916;-66
2021/12/11 06:14:47;;;;;;;30.20;19.10;;;;;;;-0.30;79.87;98396.53;5106792;28;20040;-67
2021/12/11 06:17:24;;;;;;;33.58;19.60;;;;;;;-0.30;79.93;98376.53;5107054;28;20040;-67
2021/12/11 06:19:58;;;;;;;32.20;20.02;;;;;;;-0.27;79.80;98380.81;5106876;28;20097;-67
2021/12/11 06:22:33;;;;;;;29.75;18.35;;;;;;;-0.21;79.66;98385.84;5106883;28;20044;-67
2021/12/11 06:25:08;;;;;;;29.05;17.50;;;;;;;-0.21;79.62;98391.06;5106813;28;20085;-67
2021/12/11 06:27:41;;;;;;;30.88;19.55;;;;;;;-1.47;79.27;98202.72;5106483;28;20231;-67
2021/12/11 06:30:15;;;;;;;30.05;19.35;;;;;;;-0.16;79.54;98389.19;5106743;28;20044;-67
2021/12/11 06:32:50;;;;;;;28.97;18.53;;;;;;;-0.13;79.34;98394.31;5106609;28;20044;-67
2021/12/11 06:35:28;;;;;;;28.50;19.63;;;;;;;-0.11;79.30;98393.38;5106403;28;20044;-67
2021/12/11 06:38:00;;;;;;;33.58;20.48;;;;;;;-0.10;79.32;98389.88;5106623;28;20044;-67
2021/12/11 06:40:33;;;;;;;33.85;19.58;;;;;;;-0.09;79.23;98394.19;5106258;28;20073;-67
2021/12/11 06:43:05;;;;;;;30.27;19.13;;;;;;;-0.06;79.41;98395.84;5106449;28;20089;-67
2021/12/11 06:45:38;;;;;;;32.88;21.05;;;;;;;-0.02;79.30;98402.69;5106182;28;20043;-67
2021/12/11 06:48:12;;;;;;;31.27;20.08;;;;;;;-0.03;79.44;98400.97;5106452;28;20083;-67
2021/12/11 06:50:44;;;;;;;37.22;22.15;;;;;;;0.02;79.37;98400.84;5106101;28;20040;-67
2021/12/11 06:53:23;;;;;;;31.30;19.67;;;;;;;-0.01;79.44;98393.97;5106131;28;20044;-67
2021/12/11 06:55:55;;;;;;;32.55;20.65;;;;;;;-0.00;79.38;98410.47;5106019;28;20051;-67
2021/12/11 06:58:28;;;;;;;29.90;20.27;;;;;;;0.00;79.64;98416.53;5106217;28;20036;-67
2021/12/11 07:01:01;;;;;;;33.15;20.58;;;;;;;0.08;79.39;98424.97;5105934;28;20040;-67
2021/12/11 07:03:36;;;;;;;36.42;22.20;;;;;;;0.08;79.38;98424.13;5106116;28;20048;-67
2021/12/11 07:06:09;;;;;;;;;;;;;;;0.02;79.57;98429.50;5106033;28;20040;-67
2021/12/11 07:08:41;;;;;;;29.55;19.48;;;;;;;0.02;79.82;98434.72;5105803;28;19915;-67
2021/12/11 07:11:14;;;;;;;34.58;20.17;;;;;;;0.05;79.63;98443.31;5106059;28;20047;-66
2021/12/11 07:13:46;;;;;;;36.35;21.75;;;;;;;0.08;79.65;98448.44;5105451;28;20255;-67
2021/12/11 07:16:19;;;;;;;32.33;19.42;;;;;;;0.11;79.55;98456.16;5105942;28;20151;-67
2021/12/11 07:18:52;;;;;;;38.38;23.23;;;;;;;0.17;79.32;98462.97;5105948;28;20059;-66
2021/12/11 07:21:25;;;;;;;33.15;21.63;;;;;;;0.19;79.37;98466.38;5105912;28;20070;-67
2021/12/11 07:23:58;;;;;;;34.58;20.92;;;;;;;0.20;79.46;98466.34;5105728;28;20055;-67
2021/12/11 07:26:33;;;;;;;40.40;23.08;;;;;;;0.21;79.60;98473.25;5105772;28;20047;-67
2021/12/11 07:29:08;;;;;;;;;;;;;;;0.19;79.74;98487.22;5106104;28;20047;-67
2021/12/11 07:31:41;;;;;;;33.55;17.55;;;;;;;0.21;79.69;98491.50;5105568;28;19915;-67
2021/12/11 07:34:16;;;;;;;33.30;20.30;;;;;;;0.23;79.64;98494.91;5105626;28;20048;-67
2021/12/11 07:36:51;;;;;;;28.35;18.35;;;;;;;0.03;79.42;98447.69;5105494;28;20040;-67
2021/12/11 07:39:24;;;;;;;31.73;18.90;;;;;;;0.08;79.30;98458.00;5105522;28;20047;-67
2021/12/11 07:41:54;;;;;;;31.48;19.40;;;;;;;0.34;79.30;98493.75;5105810;28;20047;-67
2021/12/11 07:44:26;;;;;;;29.13;18.25;;;;;;;0.33;79.45;98510.31;5105341;28;20043;-67
2021/12/11 07:46:58;;;;;;;35.03;19.77;;;;;;;0.28;79.42;98524.31;5105463;28;20048;-67
2021/12/11 07:49:30;;;;;;;30.08;17.02;;;;;;;0.29;79.30;98525.16;5105549;28;20048;-67
2021/12/11 07:51:59;;;;;;;33.38;18.17;;;;;;;0.31;79.42;98535.56;5105511;28;20036;-67
2021/12/11 07:54:29;;;;;;;31.90;19.17;;;;;;;0.27;79.58;98538.25;5105377;28;20048;-67
2021/12/11 07:56:59;;;;;;;33.65;19.33;;;;;;;-1.22;79.36;98284.38;5105530;28;20047;-67
2021/12/11 07:59:29;;;;;;;31.23;20.52;;;;;;;0.04;79.46;98514.53;5105610;28;20044;-67
2021/12/11 08:01:59;;;;;;;28.80;17.42;;;;;;;0.35;79.50;98555.41;5105559;28;20059;-67
2021/12/11 08:04:31;;;;;;;29.48;17.80;;;;;;;0.38;79.36;98555.34;5105543;28;20044;-67
2021/12/11 08:06:59;;;;;;;28.88;18.30;;;;;;;0.36;79.56;98567.56;5105695;28;20036;-67
2021/12/11 08:09:30;;;;;;;28.42;18.13;;;;;;;0.36;79.48;98570.16;5105416;28;20048;-67
2021/12/11 08:12:00;;;;;;;30.40;19.90;;;;;;;0.37;79.43;98579.69;5106178;28;20036;-67
2021/12/11 08:14:30;;;;;;;30.92;19.38;;;;;;;-0.52;79.28;98428.31;5104956;28;20075;-67
2021/12/11 08:17:04;;;;;;;32.03;20.08;;;;;;;0.40;79.20;98585.69;5105623;28;20094;-67
2021/12/11 08:19:38;;;;;;;31.75;20.23;;;;;;;0.42;79.36;98593.47;5109225;28;20048;-67
2021/12/11 08:22:12;;;;;;;31.88;20.02;;;;;;;0.45;79.08;98599.44;5109110;28;20047;-67
2021/12/11 08:24:45;;;;;;;32.27;20.60;;;;;;;0.43;79.25;98613.44;5109131;28;20051;-68
2021/12/11 08:27:21;;;;;;;29.65;20.40;;;;;;;0.40;79.21;98608.28;5109038;28;20682;-67
2021/12/11 08:29:54;;;;;;;31.90;19.27;;;;;;;0.39;79.31;98612.66;5108937;28;20051;-67
2021/12/11 08:32:26;;;;;;;31.42;19.45;;;;;;;0.40;79.39;98619.56;5108580;28;20047;-67
2021/12/11 08:35:00;;;;;;;32.53;20.25;;;;;;;0.14;79.48;98575.94;5108689;28;20342;-67
2021/12/11 08:37:33;;;;;;;37.05;18.92;;;;;;;0.43;79.45;98619.50;5108829;28;20059;-67
2021/12/11 08:40:11;;;;;;;31.92;20.63;;;;;;;0.38;79.45;98626.56;5108807;28;20059;-67
2021/12/11 08:42:43;;;;;;;28.38;18.13;;;;;;;0.39;79.38;98630.03;5108776;28;20047;-67
2021/12/11 08:45:23;;;;;;;33.92;18.98;;;;;;;0.41;79.42;98638.69;5108493;28;20040;-67
2021/12/11 08:47:59;;;;;;;32.85;21.33;;;;;;;0.42;79.09;98638.63;5108672;28;20075;-67
2021/12/11 08:50:33;;;;;;;31.58;20.55;;;;;;;0.44;79.30;98651.63;5108546;28;20142;-67
2021/12/11 08:53:05;;;;;;;36.85;21.00;;;;;;;0.43;79.24;98656.00;5108592;28;20048;-67
2021/12/11 08:55:42;;;;;;;34.90;21.10;;;;;;;-0.17;79.19;98578.44;5108561;28;20044;-67
2021/12/11 08:58:17;;;;;;;36.08;21.52;;;;;;;0.28;79.36;98666.81;5108501;28;20048;-67
2021/12/11 09:00:53;;;;;;;36.83;20.85;;;;;;;0.30;nan;98672.84;5108538;28;20048;-67
2021/12/11 09:03:31;;;;;;;42.20;21.08;;;;;;;0.06;79.53;98643.03;5108185;28;20044;-67
2021/12/11 09:06:09;;;;;;;34.92;20.50;;;;;;;0.28;79.50;98687.66;5107974;28;20040;-67
2021/12/11 09:08:45;;;;;;;33.35;21.27;;;;;;;0.27;79.39;98683.34;5108086;28;20319;-67
2021/12/11 09:11:23;;;;;;;32.50;21.27;;;;;;;0.32;79.35;98696.25;5107947;28;20040;-67
2021/12/11 09:14:00;;;;;;;36.95;21.15;;;;;;;0.05;79.46;98646.50;5107658;28;20056;-67
2021/12/11 09:16:38;;;;;;;35.00;20.90;;;;;;;0.35;79.30;98698.78;5108617;28;20048;-67
2021/12/11 09:19:13;;;;;;;37.25;20.67;;;;;;;0.40;79.25;98702.13;5108301;28;20059;-67
2021/12/11 09:21:53;;;;;;;37.83;20.73;;;;;;;0.39;79.14;98705.63;5107686;28;20048;-67
2021/12/11 09:24:29;;;;;;;30.23;19.15;;;;;;;0.41;79.24;98707.31;5108006;28;20044;-67
2021/12/11 09:27:05;;;;;;;41.88;22.95;;;;;;;0.38;79.12;98707.38;5108329;28;20211;-67
2021/12/11 09:29:42;;;;;;;35.90;20.60;;;;;;;0.39;79.11;98718.66;5107198;28;20173;-67
2021/12/11 09:32:19;;;;;;;36.08;22.48;;;;;;;0.41;79.25;98719.50;5107798;28;20284;-67
2021/12/11 09:34:55;;;;;;;35.45;22.25;;;;;;;0.40;79.15;98728.19;5107710;28;20047;-67
2021/12/11 09:37:31;;;;;;;36.42;22.20;;;;;;;0.40;79.31;98725.59;5107676;28;20280;-67
2021/12/11 09:40:10;;;;;;;45.90;22.25;;;;;;;0.43;79.14;98722.91;5107600;28;20048;-67
2021/12/11 09:42:42;;;;;;;38.05;22.42;;;;;;;0.46;79.27;98720.22;5107634;28;20212;-67
2021/12/11 09:45:18;;;;;;;39.50;22.50;;;;;;;0.47;79.14;98725.41;5107557;28;20044;-67
2021/12/11 09:47:55;;;;;;;39.88;23.55;;;;;;;0.50;79.05;98733.16;5107604;28;20048;-67
2021/12/11 09:50:32;;;;;;;35.17;22.15;;;;;;;0.54;78.99;98726.13;5107754;28;20047;-67
2021/12/11 09:53:04;;;;;;;38.10;23.17;;;;;;;0.60;78.96;98731.19;5107471;28;20048;-67
2021/12/11 09:55:39;;;;;;;35.00;20.27;;;;;;;0.62;78.78;98732.00;5107255;28;20048;-69
2021/12/11 09:58:14;;;;;;;35.80;20.63;;;;;;;0.65;78.87;98734.53;5107277;28;20059;-68
2021/12/11 10:00:50;;;;;;;48.95;21.90;;;;;;;0.66;78.78;98738.84;5107348;28;20047;-68
2021/12/11 10:03:26;;;;;;;37.58;20.42;;;;;;;0.64;78.75;98740.63;5106884;28;20040;-67
2021/12/11 10:06:11;;;;;;;38.00;22.27;;;;;;;0.70;78.71;98742.22;5107914;28;20044;-68
2021/12/11 10:08:56;;;;;;;38.38;21.75;;;;;;;0.73;78.55;98747.38;5107122;28;20048;-68
2021/12/11 10:11:31;;;;;;;41.28;22.48;;;;;;;0.72;78.64;98743.91;5106751;28;20126;-68
2021/12/11 10:14:07;;;;;;;42.30;23.15;;;;;;;0.76;78.51;98753.38;5106403;28;20087;-68
2021/12/11 10:16:44;;;;;;;37.95;22.02;;;;;;;0.79;78.60;98755.03;5106698;28;20040;-68
2021/12/11 10:19:19;;;;;;;40.83;23.80;;;;;;;0.82;78.57;98762.78;5107029;28;20048;-68
2021/12/11 10:21:56;;;;;;;40.13;22.60;;;;;;;0.78;78.51;98766.38;5106986;28;20047;-68
2021/12/11 10:24:29;;;;;;;40.63;23.90;;;;;;;0.73;78.38;98771.69;5106613;28;20051;-68
2021/12/11 10:26:58;;;;;;;36.22;22.80;;;;;;;0.77;78.39;98770.72;5106776;28;20058;-67
2021/12/11 10:29:27;;;;;;;38.33;22.40;;;;;;;0.80;78.37;98775.88;5106779;28;20039;-67
2021/12/11 10:32:02;;;;;;;37.78;23.45;;;;;;;0.80;78.29;98773.25;5107316;28;20043;-68
2021/12/11 10:34:32;;;;;;;40.67;24.77;;;;;;;-0.37;78.17;98597.16;5106475;28;20208;-67
2021/12/11 10:37:07;;;;;;;40.67;21.98;;;;;;;0.81;78.17;98774.13;5106730;28;20299;-68
2021/12/11 10:39:44;;;;;;;36.92;22.33;;;;;;;0.82;78.33;98781.06;5106622;28;20048;-68
2021/12/11 10:42:18;;;;;;;37.05;22.55;;;;;;;0.85;78.33;98778.38;5105540;28;20296;-67
2021/12/11 10:44:53;;;;;;;32.47;22.43;;;;;;;0.83;78.00;98769.72;5106570;28;20044;-68
2021/12/11 10:47:31;;;;;;;42.83;25.40;;;;;;;0.84;78.11;98776.66;5106437;28;20374;-68
2021/12/11 10:50:07;;;;;;;36.47;21.88;;;;;;;0.85;77.98;98773.16;5106495;28;20047;-68
2021/12/11 10:52:39;;;;;;;36.30;21.75;;;;;;;0.87;78.17;98779.19;5106380;28;20047;-67
2021/12/11 10:55:14;;;;;;;36.22;20.42;;;;;;;0.90;78.06;98782.56;5106177;28;20044;-68
2021/12/11 10:57:48;;;;;;;38.40;23.05;;;;;;;0.88;77.78;98779.16;5106255;28;20056;-67
2021/12/11 11:00:25;;;;;;;34.65;22.85;;;;;;;0.87;77.89;98813.09;5106209;28;20047;-67
2021/12/11 11:02:59;;;;;;;41.15;24.02;;;;;;;0.87;77.85;98780.03;5105821;28;20135;-68
2021/12/11 11:05:31;;;;;;;36.27;21.07;;;;;;;0.88;77.82;98794.81;5105861;28;20316;-68
2021/12/11 11:08:07;;;;;;;37.17;22.33;;;;;;;0.91;77.88;98794.72;5106091;28;20445;-67
2021/12/11 11:10:43;;;;;;;37.22;23.15;;;;;;;0.96;77.63;98789.38;5105988;28;20048;-68
2021/12/11 11:13:17;;;;;;;34.05;20.88;;;;;;;1.02;77.74;98788.38;5105588;28;20083;-68
2021/12/11 11:15:52;;;;;;;37.15;22.38;;;;;;;1.03;77.47;98792.69;5105949;28;20044;-67
2021/12/11 11:18:28;;;;;;;42.00;24.75;;;;;;;1.07;77.62;98789.13;5106008;28;20210;-68
2021/12/11 11:21:05;;;;;;;44.30;22.83;;;;;;;1.08;77.59;98791.69;5105825;28;20059;-67
2021/12/11 11:23:39;;;;;;;40.08;22.75;;;;;;;1.10;77.40;98789.88;5105885;28;20048;-67
2021/12/11 11:26:15;;;;;;;38.53;23.57;;;;;;;1.14;77.53;98791.53;5105720;28;20044;-68
2021/12/11 11:28:47;;;;;;;38.95;24.85;;;;;;;1.20;77.54;98787.91;5105774;28;20048;-67
2021/12/11 11:31:26;;;;;;;39.05;22.77;;;;;;;1.19;77.44;98783.56;5105791;28;20058;-68
2021/12/11 11:33:59;;;;;;;42.25;23.45;;;;;;;1.20;77.22;98790.50;5105739;28;20048;-68
2021/12/11 11:36:34;;;;;;;39.17;23.63;;;;;;;1.18;77.37;98792.31;5105581;28;20066;-67
2021/12/11 11:39:10;;;;;;;35.30;21.00;;;;;;;1.17;77.42;98783.63;5105725;28;20059;-67
2021/12/11 11:41:46;;;;;;;36.30;22.33;;;;;;;1.20;76.93;98785.28;5105576;28;20048;-67
2021/12/11 11:44:19;;;;;;;34.95;21.33;;;;;;;1.23;77.31;98779.97;5105715;28;20040;-67
2021/12/11 11:46:54;;;;;;;38.80;22.48;;;;;;;1.22;77.21;98779.13;5105750;28;20204;-68
2021/12/11 11:49:29;;;;;;;39.75;23.00;;;;;;;1.22;76.95;98784.34;5105181;28;20040;-67
2021/12/11 11:51:59;;;;;;;35.47;22.52;;;;;;;1.29;77.26;98782.44;5105489;28;20036;-68
2021/12/11 11:54:32;;;;;;;34.63;22.50;;;;;;;1.34;77.26;98783.16;5109770;28;20047;-67
2021/12/11 11:57:06;;;;;;;36.55;20.85;;;;;;;1.40;76.99;98789.97;5109691;28;20058;-67
2021/12/11 11:59:39;;;;;;;35.30;21.25;;;;;;;1.44;76.91;98786.38;5109633;28;20040;-67